sensor_id;sensor_type;location;lat;lon;timestamp;pressure;altitude;pressure_sealevel;temperature;humidity
45040;BME280;30778;53.574;7.770;2023-04-15T00:01:18;101118.81;;;4.47;50.89
45040;BME280;30778;53.574;7.770;2023-04-15T00:03:44;101113.47;;;4.63;50.87
45040;BME280;30778;53.574;7.770;2023-04-15T00:06:10;101114.34;;;4.62;50.31
45040;BME280;30778;53.574;7.770;2023-04-15T00:08:36;101115.28;;;4.57;50.57
45040;BME280;30778;53.574;7.770;2023-04-15T00:11:02;101104.13;;;4.49;50.78
45040;BME280;30778;53.574;7.770;2023-04-15T00:13:30;101105.09;;;4.40;50.96
45040;BME280;30778;53.574;7.770;2023-04-15T00:15:57;101108.53;;;4.40;50.83
45040;BME280;30778;53.574;7.770;2023-04-15T00:18:23;101105.97;;;4.37;51.44
45040;BME280;30778;53.574;7.770;2023-04-15T00:20:49;101105.94;;;4.40;51.37
45040;BME280;30778;53.574;7.770;2023-04-15T00:23:17;101108.63;;;4.34;51.48
45040;BME280;30778;53.574;7.770;2023-04-15T00:25:42;101112.09;;;4.27;51.55
45040;BME280;30778;53.574;7.770;2023-04-15T00:28:08;101108.50;;;4.43;51.33
45040;BME280;30778;53.574;7.770;2023-04-15T00:30:33;101111.09;;;4.43;51.06
45040;BME280;30778;53.574;7.770;2023-04-15T00:33:00;101114.69;;;4.27;51.50
45040;BME280;30778;53.574;7.770;2023-04-15T00:35:26;101100.97;;;4.22;51.97
45040;BME280;30778;53.574;7.770;2023-04-15T00:37:52;101113.94;;;4.16;52.76
45040;BME280;30778;53.574;7.770;2023-04-15T00:40:20;101111.25;;;4.27;52.46
45040;BME280;30778;53.574;7.770;2023-04-15T00:42:45;101122.47;;;4.27;52.23
45040;BME280;30778;53.574;7.770;2023-04-15T00:45:12;101115.53;;;4.31;52.20
45040;BME280;30778;53.574;7.770;2023-04-15T00:47:40;101118.97;;;4.31;52.38
45040;BME280;30778;53.574;7.770;2023-04-15T00:50:07;101119.00;;;4.28;52.82
45040;BME280;30778;53.574;7.770;2023-04-15T00:52:32;101115.72;;;4.11;52.82
45040;BME280;30778;53.574;7.770;2023-04-15T00:54:59;101118.13;;;4.32;52.42
45040;BME280;30778;53.574;7.770;2023-04-15T00:57:25;101102.59;;;4.29;52.84
45040;BME280;30778;53.574;7.770;2023-04-15T00:59:54;101109.47;;;4.32;52.53
45040;BME280;30778;53.574;7.770;2023-04-15T01:02:20;101107.81;;;4.25;52.63
45040;BME280;30778;53.574;7.770;2023-04-15T01:04:46;101109.63;;;4.18;53.48
45040;BME280;30778;53.574;7.770;2023-04-15T01:07:12;101108.56;;;4.37;52.60
45040;BME280;30778;53.574;7.770;2023-04-15T01:09:38;101110.34;;;4.32;52.10
45040;BME280;30778;53.574;7.770;2023-04-15T01:12:06;101106.94;;;4.29;52.18
45040;BME280;30778;53.574;7.770;2023-04-15T01:14:32;101101.00;;;4.17;52.69
45040;BME280;30778;53.574;7.770;2023-04-15T01:16:58;101110.25;;;4.40;52.53
45040;BME280;30778;53.574;7.770;2023-04-15T01:19:24;101109.47;;;4.35;51.89
45040;BME280;30778;53.574;7.770;2023-04-15T01:21:49;101109.56;;;4.24;51.97
45040;BME280;30778;53.574;7.770;2023-04-15T01:24:17;101111.31;;;4.24;52.01
45040;BME280;30778;53.574;7.770;2023-04-15T01:26:42;101106.22;;;4.11;52.15
45040;BME280;30778;53.574;7.770;2023-04-15T01:29:08;101099.41;;;4.06;52.40
45040;BME280;30778;53.574;7.770;2023-04-15T01:31:34;101110.69;;;3.98;52.44
45040;BME280;30778;53.574;7.770;2023-04-15T01:34:00;101109.75;;;4.06;52.40
45040;BME280;30778;53.574;7.770;2023-04-15T01:36:28;101108.91;;;4.04;52.36
45040;BME280;30778;53.574;7.770;2023-04-15T01:38:55;101107.22;;;3.99;53.00
45040;BME280;30778;53.574;7.770;2023-04-15T01:41:25;101111.50;;;4.02;52.90
45040;BME280;30778;53.574;7.770;2023-04-15T01:43:51;101116.53;;;4.16;52.42
45040;BME280;30778;53.574;7.770;2023-04-15T01:46:17;101108.81;;;4.13;52.05
45040;BME280;30778;53.574;7.770;2023-04-15T01:48:43;101104.53;;;4.07;52.34
45040;BME280;30778;53.574;7.770;2023-04-15T01:51:11;101108.06;;;4.03;52.45
45040;BME280;30778;53.574;7.770;2023-04-15T01:53:37;101106.44;;;3.90;52.27
45040;BME280;30778;53.574;7.770;2023-04-15T01:56:02;101099.63;;;3.79;52.78
45040;BME280;30778;53.574;7.770;2023-04-15T01:58:28;101099.66;;;3.73;52.48
45040;BME280;30778;53.574;7.770;2023-04-15T02:00:53;101102.31;;;3.66;52.81
45040;BME280;30778;53.574;7.770;2023-04-15T02:03:19;101105.81;;;3.58;52.63
45040;BME280;30778;53.574;7.770;2023-04-15T02:05:44;101105.81;;;3.55;53.09
45040;BME280;30778;53.574;7.770;2023-04-15T02:08:10;101105.81;;;3.55;53.11
45040;BME280;30778;53.574;7.770;2023-04-15T02:10:37;101111.00;;;3.55;53.40
45040;BME280;30778;53.574;7.770;2023-04-15T02:13:04;101110.00;;;3.73;53.66
45040;BME280;30778;53.574;7.770;2023-04-15T02:15:29;101109.97;;;3.79;53.42
45040;BME280;30778;53.574;7.770;2023-04-15T02:17:57;101102.09;;;3.93;53.49
45040;BME280;30778;53.574;7.770;2023-04-15T02:20:23;101107.16;;;4.02;52.92
45040;BME280;30778;53.574;7.770;2023-04-15T02:22:49;101108.91;;;4.04;53.06
45040;BME280;30778;53.574;7.770;2023-04-15T02:25:15;101102.00;;;4.06;53.12
45040;BME280;30778;53.574;7.770;2023-04-15T02:27:44;101110.69;;;3.98;53.40
45040;BME280;30778;53.574;7.770;2023-04-15T02:30:10;101117.50;;;4.02;53.34
45040;BME280;30778;53.574;7.770;2023-04-15T02:32:35;101107.16;;;4.06;53.56
45040;BME280;30778;53.574;7.770;2023-04-15T02:35:04;101114.03;;;4.10;53.07
45040;BME280;30778;53.574;7.770;2023-04-15T02:37:35;101110.50;;;4.14;53.46
45040;BME280;30778;53.574;7.770;2023-04-15T02:40:08;101108.00;;;4.08;53.54
45040;BME280;30778;53.574;7.770;2023-04-15T02:42:37;101107.91;;;4.17;53.60
45040;BME280;30778;53.574;7.770;2023-04-15T02:45:02;101105.28;;;4.18;53.35
45040;BME280;30778;53.574;7.770;2023-04-15T02:47:32;101115.59;;;4.25;53.71
45040;BME280;30778;53.574;7.770;2023-04-15T02:49:58;101113.84;;;4.25;53.44
45040;BME280;30778;53.574;7.770;2023-04-15T02:52:27;101116.34;;;4.36;53.22
45040;BME280;30778;53.574;7.770;2023-04-15T02:54:53;101124.25;;;4.22;53.70
45040;BME280;30778;53.574;7.770;2023-04-15T02:57:22;101124.78;;;4.55;53.47
45040;BME280;30778;53.574;7.770;2023-04-15T02:59:47;101121.50;;;4.39;53.74
45040;BME280;30778;53.574;7.770;2023-04-15T03:02:13;101117.22;;;4.36;53.40
45040;BME280;30778;53.574;7.770;2023-04-15T03:04:38;101110.31;;;4.35;53.56
45040;BME280;30778;53.574;7.770;2023-04-15T03:07:04;101116.34;;;4.37;53.69
45040;BME280;30778;53.574;7.770;2023-04-15T03:09:30;101120.81;;;4.23;54.41
45040;BME280;30778;53.574;7.770;2023-04-15T03:11:57;101107.06;;;4.16;54.29
45040;BME280;30778;53.574;7.770;2023-04-15T03:14:23;101121.59;;;4.28;54.15
45040;BME280;30778;53.574;7.770;2023-04-15T03:16:48;101120.00;;;4.12;54.38
45040;BME280;30778;53.574;7.770;2023-04-15T03:19:16;101113.13;;;4.11;54.59
45040;BME280;30778;53.574;7.770;2023-04-15T03:21:42;101116.63;;;4.10;54.94
45040;BME280;30778;53.574;7.770;2023-04-15T03:24:10;101119.19;;;4.08;54.58
45040;BME280;30778;53.574;7.770;2023-04-15T03:26:35;101115.72;;;4.11;54.53
45040;BME280;30778;53.574;7.770;2023-04-15T03:29:07;101118.34;;;4.06;54.46
45040;BME280;30778;53.574;7.770;2023-04-15T03:31:33;101121.84;;;4.02;54.77
45040;BME280;30778;53.574;7.770;2023-04-15T03:33:58;101117.63;;;3.92;54.58
45040;BME280;30778;53.574;7.770;2023-04-15T03:36:24;101114.28;;;3.79;55.17
45040;BME280;30778;53.574;7.770;2023-04-15T03:38:50;101113.34;;;3.86;55.08
45040;BME280;30778;53.574;7.770;2023-04-15T03:41:15;101118.63;;;3.74;55.46
45040;BME280;30778;53.574;7.770;2023-04-15T03:43:43;101112.66;;;3.63;55.72
45040;BME280;30778;53.574;7.770;2023-04-15T03:46:09;101116.91;;;3.73;55.40
45040;BME280;30778;53.574;7.770;2023-04-15T03:48:34;101109.06;;;3.84;55.10
45040;BME280;30778;53.574;7.770;2023-04-15T03:51:00;101110.84;;;3.77;55.24
45040;BME280;30778;53.574;7.770;2023-04-15T03:53:25;101109.19;;;3.70;55.51
45040;BME280;30778;53.574;7.770;2023-04-15T03:55:51;101115.13;;;3.78;55.55
45040;BME280;30778;53.574;7.770;2023-04-15T03:58:16;101101.34;;;3.77;55.57
45040;BME280;30778;53.574;7.770;2023-04-15T04:00:43;101106.53;;;3.79;55.61
45040;BME280;30778;53.574;7.770;2023-04-15T04:03:08;101111.72;;;3.73;55.72
45040;BME280;30778;53.574;7.770;2023-04-15T04:05:33;101112.53;;;3.81;55.77
45040;BME280;30778;53.574;7.770;2023-04-15T04:08:01;101116.09;;;3.65;56.68
45040;BME280;30778;53.574;7.770;2023-04-15T04:10:26;101122.91;;;3.75;56.43
45040;BME280;30778;53.574;7.770;2023-04-15T04:12:52;101115.72;;;4.09;55.40
45040;BME280;30778;53.574;7.770;2023-04-15T04:15:17;101126.72;;;4.33;55.32
45040;BME280;30778;53.574;7.770;2023-04-15T04:17:43;101118.28;;;4.14;55.63
45040;BME280;30778;53.574;7.770;2023-04-15T04:20:09;101122.56;;;4.18;55.88
45040;BME280;30778;53.574;7.770;2023-04-15T04:22:38;101125.09;;;4.26;56.60
45040;BME280;30778;53.574;7.770;2023-04-15T04:25:04;101133.56;;;4.38;56.25
45040;BME280;30778;53.574;7.770;2023-04-15T04:27:30;101134.50;;;4.34;56.22
45040;BME280;30778;53.574;7.770;2023-04-15T04:29:55;101121.34;;;4.54;56.05
45040;BME280;30778;53.574;7.770;2023-04-15T04:32:20;101122.25;;;4.49;56.19
45040;BME280;30778;53.574;7.770;2023-04-15T04:34:46;101130.63;;;4.72;55.67
45040;BME280;30778;53.574;7.770;2023-04-15T04:37:12;101126.13;;;4.90;55.09
45040;BME280;30778;53.574;7.770;2023-04-15T04:39:38;101130.75;;;4.61;56.14
45040;BME280;30778;53.574;7.770;2023-04-15T04:42:03;101132.44;;;4.64;55.75
45040;BME280;30778;53.574;7.770;2023-04-15T04:44:29;101135.94;;;4.60;56.00
45040;BME280;30778;53.574;7.770;2023-04-15T04:46:54;101137.56;;;4.67;56.32
45040;BME280;30778;53.574;7.770;2023-04-15T04:49:20;101133.13;;;4.80;55.69
45040;BME280;30778;53.574;7.770;2023-04-15T04:51:45;101130.53;;;4.81;55.88
45040;BME280;30778;53.574;7.770;2023-04-15T04:54:12;101137.38;;;4.89;55.50
45040;BME280;30778;53.574;7.770;2023-04-15T04:56:38;101136.78;;;4.60;56.68
45040;BME280;30778;53.574;7.770;2023-04-15T04:59:04;101136.53;;;4.88;55.57
45040;BME280;30778;53.574;7.770;2023-04-15T05:01:29;101142.75;;;4.70;56.40
45040;BME280;30778;53.574;7.770;2023-04-15T05:03:55;101140.03;;;4.79;55.90
45040;BME280;30778;53.574;7.770;2023-04-15T05:06:20;101137.16;;;5.05;55.33
45040;BME280;30778;53.574;7.770;2023-04-15T05:08:46;101139.09;;;4.87;56.05
45040;BME280;30778;53.574;7.770;2023-04-15T05:11:14;101146.19;;;4.71;56.24
45040;BME280;30778;53.574;7.770;2023-04-15T05:13:42;101143.00;;;5.21;55.02
45040;BME280;30778;53.574;7.770;2023-04-15T05:16:08;101149.38;;;4.96;55.87
45040;BME280;30778;53.574;7.770;2023-04-15T05:18:33;101147.25;;;5.25;55.19
45040;BME280;30778;53.574;7.770;2023-04-15T05:20:59;101146.00;;;4.91;56.05
45040;BME280;30778;53.574;7.770;2023-04-15T05:23:24;101147.81;;;4.78;56.03
45040;BME280;30778;53.574;7.770;2023-04-15T05:25:50;101152.59;;;5.15;55.78
45040;BME280;30778;53.574;7.770;2023-04-15T05:28:15;101151.94;;;4.97;56.44
45040;BME280;30778;53.574;7.770;2023-04-15T05:30:41;101151.19;;;4.84;57.14
45040;BME280;30778;53.574;7.770;2023-04-15T05:33:07;101156.84;;;5.19;55.93
45040;BME280;30778;53.574;7.770;2023-04-15T05:35:33;101157.47;;;5.38;55.64
45040;BME280;30778;53.574;7.770;2023-04-15T05:37:59;101154.59;;;4.93;56.91
45040;BME280;30778;53.574;7.770;2023-04-15T05:40:24;101170.75;;;5.15;56.45
45040;BME280;30778;53.574;7.770;2023-04-15T05:42:50;101164.06;;;4.94;56.32
45040;BME280;30778;53.574;7.770;2023-04-15T05:45:16;101169.97;;;5.08;56.31
45040;BME280;30778;53.574;7.770;2023-04-15T05:47:41;101175.81;;;5.24;55.87
45040;BME280;30778;53.574;7.770;2023-04-15T05:50:07;101174.44;;;5.59;55.14
45040;BME280;30778;53.574;7.770;2023-04-15T05:52:33;101176.41;;;5.43;55.40
45040;BME280;30778;53.574;7.770;2023-04-15T05:55:00;101190.56;;;5.17;56.44
45040;BME280;30778;53.574;7.770;2023-04-15T05:57:28;101184.94;;;5.51;55.33
45040;BME280;30778;53.574;7.770;2023-04-15T05:59:53;101188.31;;;5.56;55.54
45040;BME280;30778;53.574;7.770;2023-04-15T06:02:21;101196.53;;;5.22;56.86
45040;BME280;30778;53.574;7.770;2023-04-15T06:04:46;101190.84;;;5.61;55.87
45040;BME280;30778;53.574;7.770;2023-04-15T06:07:12;101189.94;;;5.63;55.85
45040;BME280;30778;53.574;7.770;2023-04-15T06:09:38;101195.03;;;5.70;55.76
45040;BME280;30778;53.574;7.770;2023-04-15T06:12:03;101199.72;;;5.43;56.06
45040;BME280;30778;53.574;7.770;2023-04-15T06:14:31;101200.22;;;5.73;55.34
45040;BME280;30778;53.574;7.770;2023-04-15T06:16:56;101207.16;;;5.67;55.42
45040;BME280;30778;53.574;7.770;2023-04-15T06:19:21;101203.66;;;5.72;55.47
45040;BME280;30778;53.574;7.770;2023-04-15T06:21:47;101211.13;;;5.30;56.50
45040;BME280;30778;53.574;7.770;2023-04-15T06:24:13;101203.03;;;5.54;55.46
45040;BME280;30778;53.574;7.770;2023-04-15T06:26:38;101206.59;;;5.49;55.78
45040;BME280;30778;53.574;7.770;2023-04-15T06:29:03;101210.81;;;5.54;55.89
45040;BME280;30778;53.574;7.770;2023-04-15T06:31:29;101216.72;;;5.65;55.45
45040;BME280;30778;53.574;7.770;2023-04-15T06:33:54;101231.00;;;5.31;55.96
45040;BME280;30778;53.574;7.770;2023-04-15T06:36:20;101232.28;;;5.65;55.36
45040;BME280;30778;53.574;7.770;2023-04-15T06:38:45;101233.78;;;5.82;54.91
45040;BME280;30778;53.574;7.770;2023-04-15T06:41:11;101232.28;;;5.65;55.49
45040;BME280;30778;53.574;7.770;2023-04-15T06:43:37;101232.81;;;5.89;55.03
45040;BME280;30778;53.574;7.770;2023-04-15T06:46:03;101231.34;;;5.70;55.50
45040;BME280;30778;53.574;7.770;2023-04-15T06:48:28;101235.63;;;5.75;55.31
45040;BME280;30778;53.574;7.770;2023-04-15T06:50:56;101233.78;;;5.82;55.76
45040;BME280;30778;53.574;7.770;2023-04-15T06:53:24;101235.31;;;5.95;54.82
45040;BME280;30778;53.574;7.770;2023-04-15T06:55:52;101231.06;;;5.91;55.47
45040;BME280;30778;53.574;7.770;2023-04-15T06:58:17;101233.97;;;6.25;54.25
45040;BME280;30778;53.574;7.770;2023-04-15T07:00:43;101238.09;;;5.83;55.84
45040;BME280;30778;53.574;7.770;2023-04-15T07:03:09;101240.31;;;5.47;56.12
45040;BME280;30778;53.574;7.770;2023-04-15T07:05:35;101237.94;;;5.92;55.41
45040;BME280;30778;53.574;7.770;2023-04-15T07:08:01;101234.84;;;5.69;55.61
45040;BME280;30778;53.574;7.770;2023-04-15T07:10:26;101237.38;;;5.70;55.82
45040;BME280;30778;53.574;7.770;2023-04-15T07:12:52;101241.69;;;5.73;55.79
45040;BME280;30778;53.574;7.770;2023-04-15T07:15:17;101243.06;;;5.97;55.03
45040;BME280;30778;53.574;7.770;2023-04-15T07:17:43;101241.38;;;5.94;55.66
45040;BME280;30778;53.574;7.770;2023-04-15T07:20:08;101242.97;;;6.04;55.60
45040;BME280;30778;53.574;7.770;2023-04-15T07:22:34;101236.75;;;6.15;55.12
45040;BME280;30778;53.574;7.770;2023-04-15T07:24:59;101245.84;;;5.84;55.70
45040;BME280;30778;53.574;7.770;2023-04-15T07:27:25;101249.91;;;6.04;56.00
45040;BME280;30778;53.574;7.770;2023-04-15T07:29:51;101254.06;;;6.14;55.61
45040;BME280;30778;53.574;7.770;2023-04-15T07:32:17;101251.25;;;5.71;56.79
45040;BME280;30778;53.574;7.770;2023-04-15T07:34:43;101252.09;;;5.70;57.53
45040;BME280;30778;53.574;7.770;2023-04-15T07:37:09;101249.84;;;6.08;56.16
45040;BME280;30778;53.574;7.770;2023-04-15T07:39:35;101255.66;;;5.61;57.91
45040;BME280;30778;53.574;7.770;2023-04-15T07:42:01;101255.84;;;6.11;56.47
45040;BME280;30778;53.574;7.770;2023-04-15T07:44:28;101260.47;;;5.90;57.64
45040;BME280;30778;53.574;7.770;2023-04-15T07:46:54;101266.94;;;5.58;58.21
45040;BME280;30778;53.574;7.770;2023-04-15T07:49:20;101275.50;;;5.63;58.10
45040;BME280;30778;53.574;7.770;2023-04-15T07:51:46;101264.94;;;5.79;58.12
45040;BME280;30778;53.574;7.770;2023-04-15T07:54:11;101259.53;;;5.28;58.96
45040;BME280;30778;53.574;7.770;2023-04-15T07:56:40;101272.19;;;5.55;58.43
45040;BME280;30778;53.574;7.770;2023-04-15T07:59:06;101265.06;;;5.71;58.10
45040;BME280;30778;53.574;7.770;2023-04-15T08:01:31;101277.75;;;5.91;57.18
45040;BME280;30778;53.574;7.770;2023-04-15T08:03:58;101272.81;;;5.73;58.31
45040;BME280;30778;53.574;7.770;2023-04-15T08:06:23;101283.16;;;5.76;58.48
45040;BME280;30778;53.574;7.770;2023-04-15T08:08:49;101276.78;;;6.00;57.66
45040;BME280;30778;53.574;7.770;2023-04-15T08:11:15;101274.31;;;5.91;57.71
45040;BME280;30778;53.574;7.770;2023-04-15T08:13:41;101282.44;;;5.64;58.24
45040;BME280;30778;53.574;7.770;2023-04-15T08:16:20;101279.38;;;5.97;57.23
45040;BME280;30778;53.574;7.770;2023-04-15T08:18:48;101284.97;;;5.67;58.47
45040;BME280;30778;53.574;7.770;2023-04-15T08:21:17;101284.31;;;5.53;58.81
45040;BME280;30778;53.574;7.770;2023-04-15T08:23:47;101283.84;;;5.88;57.50
45040;BME280;30778;53.574;7.770;2023-04-15T08:26:13;101301.22;;;5.82;58.29
45040;BME280;30778;53.574;7.770;2023-04-15T08:28:40;101294.25;;;5.87;57.42
45040;BME280;30778;53.574;7.770;2023-04-15T08:31:05;101290.69;;;5.94;57.76
45040;BME280;30778;53.574;7.770;2023-04-15T08:33:31;101296.44;;;6.15;56.98
45040;BME280;30778;53.574;7.770;2023-04-15T08:35:57;101296.06;;;6.42;56.47
45040;BME280;30778;53.574;7.770;2023-04-15T08:38:22;101294.47;;;6.32;57.07
45040;BME280;30778;53.574;7.770;2023-04-15T08:40:48;101300.84;;;6.08;56.88
45040;BME280;30778;53.574;7.770;2023-04-15T08:43:19;101295.53;;;5.52;58.34
45040;BME280;30778;53.574;7.770;2023-04-15T08:45:45;101305.69;;;5.71;58.48
45040;BME280;30778;53.574;7.770;2023-04-15T08:48:14;101300.34;;;5.81;58.31
45040;BME280;30778;53.574;7.770;2023-04-15T08:50:43;101302.84;;;5.91;57.84
45040;BME280;30778;53.574;7.770;2023-04-15T08:53:10;101296.84;;;5.85;58.24
45040;BME280;30778;53.574;7.770;2023-04-15T08:55:40;101297.69;;;5.87;57.91
45040;BME280;30778;53.574;7.770;2023-04-15T08:58:09;101300.63;;;5.61;58.79
45040;BME280;30778;53.574;7.770;2023-04-15T09:00:35;101300.31;;;5.86;58.66
45040;BME280;30778;53.574;7.770;2023-04-15T09:03:03;101295.78;;;5.99;58.30
45040;BME280;30778;53.574;7.770;2023-04-15T09:05:31;101304.81;;;5.70;58.54
45040;BME280;30778;53.574;7.770;2023-04-15T09:08:00;101295.00;;;5.95;58.01
45040;BME280;30778;53.574;7.770;2023-04-15T09:10:26;101308.28;;;6.34;56.98
45040;BME280;30778;53.574;7.770;2023-04-15T09:12:52;101312.06;;;6.12;57.22
45040;BME280;30778;53.574;7.770;2023-04-15T09:15:18;101308.69;;;6.05;58.22
45040;BME280;30778;53.574;7.770;2023-04-15T09:17:46;101311.75;;;5.70;58.89
45040;BME280;30778;53.574;7.770;2023-04-15T09:20:14;101320.97;;;5.92;58.01
45040;BME280;30778;53.574;7.770;2023-04-15T09:22:41;101317.66;;;5.81;58.30
45040;BME280;30778;53.574;7.770;2023-04-15T09:27:55;101315.47;;;5.47;59.07
45040;BME280;30778;53.574;7.770;2023-04-15T09:30:22;101319.81;;;5.48;59.14
45040;BME280;30778;53.574;7.770;2023-04-15T09:32:56;101317.97;;;5.56;58.60
45040;BME280;30778;53.574;7.770;2023-04-15T09:35:22;101320.91;;;5.98;58.47
45040;BME280;30778;53.574;7.770;2023-04-15T09:37:49;101326.78;;;6.11;57.75
45040;BME280;30778;53.574;7.770;2023-04-15T09:40:40;101320.38;;;5.73;59.05
45040;BME280;30778;53.574;7.770;2023-04-15T09:43:08;101322.66;;;5.96;58.43
45040;BME280;30778;53.574;7.770;2023-04-15T09:45:34;101321.25;;;6.36;56.66
45040;BME280;30778;53.574;7.770;2023-04-15T09:48:19;101332.09;;;6.02;58.10
45040;BME280;30778;53.574;7.770;2023-04-15T09:50:49;101327.72;;;6.05;57.63
45040;BME280;30778;53.574;7.770;2023-04-15T09:53:22;101336.31;;;6.11;58.05
45040;BME280;30778;53.574;7.770;2023-04-15T09:55:56;101331.16;;;6.06;57.52
45040;BME280;30778;53.574;7.770;2023-04-15T09:58:26;101344.41;;;5.86;58.67
45040;BME280;30778;53.574;7.770;2023-04-15T10:00:55;101336.66;;;5.83;58.21
45040;BME280;30778;53.574;7.770;2023-04-15T10:03:25;101331.97;;;5.41;59.88
45040;BME280;30778;53.574;7.770;2023-04-15T10:05:54;101336.34;;;5.38;60.10
45040;BME280;30778;53.574;7.770;2023-04-15T10:08:22;101343.66;;;5.75;59.70
45040;BME280;30778;53.574;7.770;2023-04-15T10:10:49;101339.69;;;6.16;58.47
45040;BME280;30778;53.574;7.770;2023-04-15T10:13:25;101352.50;;;5.61;59.47
45040;BME280;30778;53.574;7.770;2023-04-15T10:16:19;101351.44;;;5.75;59.07
45040;BME280;30778;53.574;7.770;2023-04-15T10:18:47;101347.94;;;5.79;58.95
45040;BME280;30778;53.574;7.770;2023-04-15T10:21:14;101351.41;;;5.79;58.82
45040;BME280;30778;53.574;7.770;2023-04-15T10:23:44;101353.78;;;5.95;58.69
45040;BME280;30778;53.574;7.770;2023-04-15T10:26:10;101358.38;;;5.77;59.18
45040;BME280;30778;53.574;7.770;2023-04-15T10:28:37;101355.88;;;5.66;59.05
45040;BME280;30778;53.574;7.770;2023-04-15T10:31:03;101363.78;;;5.56;59.38
45040;BME280;30778;53.574;7.770;2023-04-15T10:33:30;101359.94;;;5.89;58.32
45040;BME280;30778;53.574;7.770;2023-04-15T10:35:56;101360.66;;;5.23;60.53
45040;BME280;30778;53.574;7.770;2023-04-15T10:38:32;101361.69;;;5.88;58.43
45040;BME280;30778;53.574;7.770;2023-04-15T10:43:52;101360.13;;;5.72;59.60
45040;BME280;30778;53.574;7.770;2023-04-15T10:46:23;101364.22;;;5.90;58.48
45040;BME280;30778;53.574;7.770;2023-04-15T10:48:51;101366.53;;;5.42;59.96
45040;BME280;30778;53.574;7.770;2023-04-15T10:51:30;101368.19;;;5.49;59.84
45040;BME280;30778;53.574;7.770;2023-04-15T10:53:58;101373.31;;;5.55;59.74
45040;BME280;30778;53.574;7.770;2023-04-15T10:56:24;101370.38;;;5.84;58.69
45040;BME280;30778;53.574;7.770;2023-04-15T10:58:49;101371.56;;;5.54;59.34
45040;BME280;30778;53.574;7.770;2023-04-15T11:01:15;101373.03;;;5.80;58.87
45040;BME280;30778;53.574;7.770;2023-04-15T11:03:42;101370.72;;;5.54;59.80
45040;BME280;30778;53.574;7.770;2023-04-15T11:06:07;101381.03;;;5.58;59.57
45040;BME280;30778;53.574;7.770;2023-04-15T11:08:54;101372.78;;;5.24;60.70
45040;BME280;30778;53.574;7.770;2023-04-15T11:11:21;101389.88;;;5.39;60.32
45040;BME280;30778;53.574;7.770;2023-04-15T11:13:50;101388.06;;;5.47;60.30
45040;BME280;30778;53.574;7.770;2023-04-15T11:16:17;101389.22;;;5.20;60.79
45040;BME280;30778;53.574;7.770;2023-04-15T11:18:53;101385.50;;;5.47;60.22
45040;BME280;30778;53.574;7.770;2023-04-15T11:21:23;101386.47;;;5.35;60.23
45040;BME280;30778;53.574;7.770;2023-04-15T11:23:49;101383.63;;;5.58;59.37
45040;BME280;30778;53.574;7.770;2023-04-15T11:26:15;101383.78;;;5.44;60.31
45040;BME280;30778;53.574;7.770;2023-04-15T11:28:44;101383.78;;;5.43;60.25
45040;BME280;30778;53.574;7.770;2023-04-15T11:31:14;101393.16;;;5.58;60.23
45040;BME280;30778;53.574;7.770;2023-04-15T11:33:57;101388.38;;;5.16;61.57
45040;BME280;30778;53.574;7.770;2023-04-15T11:36:28;101386.97;;;5.71;59.83
45040;BME280;30778;53.574;7.770;2023-04-15T11:38:54;101390.41;;;5.70;60.04
45040;BME280;30778;53.574;7.770;2023-04-15T11:41:22;101387.88;;;5.65;60.69
45040;BME280;30778;53.574;7.770;2023-04-15T11:43:51;101402.19;;;5.20;61.25
45040;BME280;30778;53.574;7.770;2023-04-15T11:46:17;101400.19;;;5.45;60.42
45040;BME280;30778;53.574;7.770;2023-04-15T11:48:45;101407.50;;;5.03;61.93
45040;BME280;30778;53.574;7.770;2023-04-15T11:51:11;101409.00;;;5.30;61.16
45040;BME280;30778;53.574;7.770;2023-04-15T11:53:39;101417.44;;;5.49;61.03
45040;BME280;30778;53.574;7.770;2023-04-15T11:56:06;101413.16;;;5.45;60.72
45040;BME280;30778;53.574;7.770;2023-04-15T11:58:34;101412.50;;;5.26;61.59
45040;BME280;30778;53.574;7.770;2023-04-15T12:01:04;101414.97;;;5.37;61.17
45040;BME280;30778;53.574;7.770;2023-04-15T12:03:44;101410.81;;;5.19;61.62
45040;BME280;30778;53.574;7.770;2023-04-15T12:06:17;101412.50;;;5.24;61.56
45040;BME280;30778;53.574;7.770;2023-04-15T12:09:12;101416.66;;;5.44;61.12
45040;BME280;30778;53.574;7.770;2023-04-15T12:11:49;101417.72;;;5.18;61.32
45040;BME280;30778;53.574;7.770;2023-04-15T12:17:02;101417.97;;;5.79;60.10
45040;BME280;30778;53.574;7.770;2023-04-15T12:19:36;101412.50;;;5.26;61.35
45040;BME280;30778;53.574;7.770;2023-04-15T12:22:08;101421.63;;;5.64;60.90
45040;BME280;30778;53.574;7.770;2023-04-15T12:24:35;101417.38;;;5.55;60.44
45040;BME280;30778;53.574;7.770;2023-04-15T12:27:06;101427.06;;;5.38;61.32
45040;BME280;30778;53.574;7.770;2023-04-15T12:29:34;101428.00;;;5.31;61.74
45040;BME280;30778;53.574;7.770;2023-04-15T12:32:11;101430.38;;;5.52;61.41
45040;BME280;30778;53.574;7.770;2023-04-15T12:34:39;101433.72;;;5.63;60.89
45040;BME280;30778;53.574;7.770;2023-04-15T12:37:07;101441.78;;;5.34;61.97
45040;BME280;30778;53.574;7.770;2023-04-15T12:39:36;101446.91;;;5.40;61.79
45040;BME280;30778;53.574;7.770;2023-04-15T12:42:03;101447.25;;;5.93;60.52
45040;BME280;30778;53.574;7.770;2023-04-15T12:44:29;101461.28;;;5.75;60.92
45040;BME280;30778;53.574;7.770;2023-04-15T12:46:55;101455.19;;;5.76;60.78
45040;BME280;30778;53.574;7.770;2023-04-15T12:49:21;101459.50;;;5.79;60.87
45040;BME280;30778;53.574;7.770;2023-04-15T12:51:55;101445.63;;;5.83;60.92
45040;BME280;30778;53.574;7.770;2023-04-15T12:54:20;101462.13;;;5.74;61.64
45040;BME280;30778;53.574;7.770;2023-04-15T12:56:48;101457.56;;;5.96;61.05
45040;BME280;30778;53.574;7.770;2023-04-15T12:59:15;101461.38;;;5.66;61.76
45040;BME280;30778;53.574;7.770;2023-04-15T13:01:41;101457.41;;;6.12;60.87
45040;BME280;30778;53.574;7.770;2023-04-15T13:04:07;101455.88;;;5.94;61.30
45040;BME280;30778;53.574;7.770;2023-04-15T13:06:33;101462.88;;;5.87;61.50
45040;BME280;30778;53.574;7.770;2023-04-15T13:08:59;101475.16;;;5.70;61.94